createdAt,value
2023-05-01T00:01:49.600Z,4.80
2023-05-01T00:05:27.796Z,4.40
2023-05-01T00:09:04.984Z,4.10
2023-05-01T00:12:42.512Z,5.30
2023-05-01T00:16:20.157Z,4.30
2023-05-01T00:19:58.563Z,4.30
2023-05-01T00:23:35.503Z,4.10
2023-05-01T00:27:13.457Z,4.10
2023-05-01T00:30:50.796Z,4.30
2023-05-01T00:34:29.118Z,4.40
2023-05-01T00:38:05.957Z,3.80
2023-05-01T00:41:43.915Z,4.10
2023-05-01T00:45:21.396Z,4.70
2023-05-01T00:48:59.307Z,4.50
2023-05-01T00:52:37.426Z,4.60
2023-05-01T00:56:16.153Z,4.80
2023-05-01T00:59:52.191Z,4.20
2023-05-01T01:03:31.615Z,5.10
2023-05-01T01:07:24.734Z,4.80
2023-05-01T01:11:04.008Z,5.50
2023-05-01T01:14:33.207Z,4.60
2023-05-01T01:18:18.172Z,4.20
2023-05-01T01:21:45.346Z,4.40
2023-05-01T01:25:34.802Z,4.70
2023-05-01T01:29:12.396Z,4.10
2023-05-01T01:33:09.735Z,3.90
2023-05-01T01:36:47.967Z,4.80
2023-05-01T01:40:08.170Z,4.70
2023-05-01T01:43:47.979Z,4.80
2023-05-01T01:47:24.213Z,4.30
2023-05-01T01:50:59.019Z,4.50
2023-05-01T01:54:37.897Z,4.40
2023-05-01T01:58:13.659Z,4.00
2023-05-01T02:01:50.920Z,4.20
2023-05-01T02:05:27.441Z,4.30
2023-05-01T02:09:07.737Z,4.40
2023-05-01T02:12:48.763Z,4.40
2023-05-01T02:16:23.278Z,4.70
2023-05-01T02:19:58.098Z,5.10
2023-05-01T02:23:36.464Z,3.90
2023-05-01T02:27:24.721Z,4.30
2023-05-01T02:30:50.843Z,4.10
2023-05-01T02:34:28.264Z,5.50
2023-05-01T02:38:06.397Z,5.20
2023-05-01T02:41:44.959Z,4.10
2023-05-01T02:45:23.869Z,4.20
2023-05-01T02:49:01.880Z,3.80
2023-05-01T02:52:37.743Z,4.50
2023-05-01T02:56:14.722Z,4.00
2023-05-01T02:59:51.615Z,4.10
2023-05-01T03:03:29.783Z,3.90
2023-05-01T03:07:06.986Z,3.90
2023-05-01T03:10:44.728Z,5.50
2023-05-01T03:14:22.521Z,3.90
2023-05-01T03:18:00.332Z,4.00
2023-05-01T03:21:38.612Z,4.70
2023-05-01T03:25:15.746Z,3.90
2023-05-01T03:28:53.123Z,4.70
2023-05-01T03:32:31.106Z,4.60
2023-05-01T03:36:12.382Z,4.40
2023-05-01T03:39:46.776Z,4.10
2023-05-01T03:43:24.953Z,4.30
2023-05-01T03:47:01.913Z,4.00
2023-05-01T03:50:39.135Z,4.40
2023-05-01T03:54:16.842Z,4.60
2023-05-01T03:57:54.556Z,4.10
2023-05-01T04:01:35.006Z,4.40
2023-05-01T04:05:10.360Z,4.60
2023-05-01T04:08:47.460Z,4.00
2023-05-01T04:12:25.028Z,4.40
2023-05-01T04:16:03.232Z,4.10
2023-05-01T04:19:41.356Z,4.20
2023-05-01T04:23:18.435Z,4.80
2023-05-01T04:26:56.020Z,4.10
2023-05-01T04:30:33.677Z,3.80
2023-05-01T04:34:11.507Z,3.80
2023-05-01T04:37:48.884Z,3.80
2023-05-01T04:41:26.947Z,4.30
2023-05-01T04:45:04.846Z,4.70
2023-05-01T04:48:42.258Z,3.90
2023-05-01T04:52:19.909Z,4.00
2023-05-01T04:55:57.543Z,3.60
2023-05-01T05:03:12.936Z,5.70
2023-05-01T05:06:50.507Z,3.40
2023-05-01T05:10:27.901Z,3.40
2023-05-01T05:14:05.732Z,4.20
2023-05-01T05:17:43.054Z,4.30
2023-05-01T05:21:21.145Z,4.10
2023-05-01T05:25:04.540Z,4.10
2023-05-01T05:28:36.231Z,3.30
2023-05-01T05:32:14.163Z,4.30
2023-05-01T05:35:52.669Z,3.00
2023-05-01T05:39:31.064Z,3.50
2023-05-01T05:43:06.622Z,3.90
2023-05-01T05:46:45.269Z,3.90
2023-05-01T05:50:24.107Z,4.10
2023-05-01T05:54:00.060Z,3.80
2023-05-01T05:57:38.163Z,3.50
2023-05-01T06:01:15.206Z,3.10
2023-05-01T06:04:53.402Z,3.50
2023-05-01T06:12:08.302Z,4.10
2023-05-01T06:19:23.718Z,3.90
2023-05-01T06:23:01.545Z,3.60
2023-05-01T06:33:54.418Z,2.70
2023-05-01T06:37:36.636Z,4.40
2023-05-01T06:41:13.497Z,2.80
2023-05-01T06:48:28.870Z,3.10
2023-05-01T06:52:07.012Z,2.80
2023-05-01T06:55:44.678Z,2.70
2023-05-01T06:59:21.838Z,3.00
2023-05-01T07:02:59.647Z,2.70
2023-05-01T07:06:37.643Z,2.60
2023-05-01T07:10:15.742Z,2.30
2023-05-01T07:13:54.802Z,2.20
2023-05-01T07:17:31.388Z,2.40
2023-05-01T07:21:10.240Z,2.70
2023-05-01T07:24:45.853Z,2.10
2023-05-01T07:28:23.463Z,2.30
2023-05-01T07:32:01.700Z,2.40
2023-05-01T07:35:38.667Z,2.80
2023-05-01T07:39:17.901Z,2.20
2023-05-01T07:42:54.667Z,2.20
2023-05-01T07:46:31.873Z,2.50
2023-05-01T07:50:13.574Z,2.10
2023-05-01T07:53:48.048Z,2.40
2023-05-01T07:57:25.547Z,3.50
2023-05-01T08:01:03.103Z,2.90
2023-05-01T08:04:41.930Z,2.80
2023-05-01T08:08:37.090Z,2.10
2023-05-01T08:11:55.429Z,2.20
2023-05-01T08:15:33.612Z,2.60
2023-05-01T08:22:48.670Z,2.20
2023-05-01T08:26:26.804Z,2.90
2023-05-01T08:30:04.462Z,2.50
2023-05-01T08:33:43.475Z,1.80
2023-05-01T08:37:19.976Z,1.80
2023-05-01T08:40:59.104Z,2.00
2023-05-01T08:44:40.055Z,3.30
2023-05-01T08:48:13.411Z,2.40
2023-05-01T08:51:53.531Z,2.60
2023-05-01T08:55:30.704Z,2.30
2023-05-01T08:59:06.099Z,2.40
2023-05-01T09:02:44.599Z,3.10
2023-05-01T09:06:22.804Z,3.80
2023-05-01T09:09:58.744Z,3.10
2023-05-01T09:13:36.409Z,3.40
2023-05-01T09:17:14.414Z,4.70
2023-05-01T09:20:51.630Z,4.80
2023-05-01T09:24:30.270Z,4.00
2023-05-01T09:28:07.947Z,4.20
2023-05-01T09:31:44.884Z,4.80
2023-05-01T09:35:22.466Z,3.50
2023-05-01T09:39:01.580Z,3.50
2023-05-01T09:42:49.656Z,3.40
2023-05-01T09:46:15.614Z,3.80
2023-05-01T09:49:57.235Z,3.90
2023-05-01T09:57:08.138Z,3.20
2023-05-01T10:00:52.237Z,3.20
2023-05-01T10:04:35.455Z,3.10
2023-05-01T10:08:05.870Z,3.10
2023-05-01T10:11:54.618Z,4.10
2023-05-01T10:15:25.661Z,3.20
2023-05-01T10:18:56.850Z,2.60
2023-05-01T10:22:32.168Z,2.80
2023-05-01T10:26:15.014Z,3.00
2023-05-01T10:30:09.458Z,3.20
2023-05-01T10:33:25.388Z,2.70
2023-05-01T10:37:08.160Z,2.80
2023-05-01T10:40:40.810Z,2.60
2023-05-01T10:44:23.273Z,3.30
2023-05-01T10:47:55.603Z,2.10
2023-05-01T10:51:33.605Z,2.70
2023-05-01T10:55:34.267Z,2.80
2023-05-01T10:59:06.468Z,2.40
2023-05-01T11:02:26.901Z,2.70
2023-05-01T11:06:04.297Z,3.00
2023-05-01T11:09:51.421Z,6.80
2023-05-01T11:13:57.953Z,2.90
2023-05-01T11:16:59.360Z,2.50
2023-05-01T11:20:36.977Z,2.70
2023-05-01T11:24:14.847Z,2.60
2023-05-01T11:27:54.372Z,2.70
2023-05-01T11:31:30.080Z,2.90
2023-05-01T11:35:16.809Z,5.80
2023-05-01T11:38:52.722Z,4.10
2023-05-01T11:42:22.997Z,2.80
2023-05-01T11:46:04.228Z,3.50
2023-05-01T11:49:39.067Z,2.60
2023-05-01T11:53:16.621Z,2.40
2023-05-01T11:57:03.874Z,2.90
2023-05-01T12:00:34.885Z,2.70
2023-05-01T12:04:09.174Z,3.70
2023-05-01T12:07:46.568Z,3.20
2023-05-01T12:11:24.213Z,3.50
2023-05-01T12:15:02.779Z,2.90
2023-05-01T12:18:39.798Z,2.90
2023-05-01T12:22:17.512Z,2.80
2023-05-01T12:29:44.862Z,2.70
2023-05-01T12:33:15.864Z,3.20
2023-05-01T12:36:55.180Z,3.50
2023-05-01T12:40:27.525Z,3.40
2023-05-01T12:44:23.925Z,3.70
2023-05-01T12:47:41.282Z,2.90
2023-05-01T12:55:07.506Z,3.10
2023-05-01T12:58:38.206Z,2.60
2023-05-01T13:02:18.529Z,3.30
2023-05-01T13:06:01.932Z,2.10
2023-05-01T13:09:32.817Z,1.90
2023-05-01T13:13:05.122Z,2.30
2023-05-01T13:16:49.801Z,6.60
2023-05-01T13:20:29.364Z,3.30
2023-05-01T13:24:00.375Z,2.30
2023-05-01T13:27:54.276Z,2.60
2023-05-01T13:31:15.150Z,2.40
2023-05-01T13:34:51.653Z,2.50
2023-05-01T13:38:33.136Z,2.10
2023-05-01T13:42:06.665Z,2.00
2023-05-01T13:45:44.162Z,3.00
2023-05-01T13:49:23.066Z,4.60
2023-05-01T13:53:00.644Z,2.80
2023-05-01T13:56:38.904Z,2.50
2023-05-01T14:00:18.049Z,6.60
2023-05-01T14:03:57.362Z,3.40
2023-05-01T14:07:30.258Z,2.80
2023-05-01T14:11:09.897Z,3.00
2023-05-01T14:14:49.669Z,2.60
2023-05-01T14:18:23.051Z,3.00
2023-05-01T14:22:02.912Z,3.60
2023-05-01T14:25:38.808Z,3.00
2023-05-01T14:29:26.235Z,3.30
2023-05-01T14:32:54.637Z,4.20
2023-05-01T14:36:32.802Z,3.90
2023-05-01T14:40:12.987Z,3.40
2023-05-01T14:43:47.907Z,2.40
2023-05-01T14:47:24.529Z,2.70
2023-05-01T14:51:04.936Z,3.90
2023-05-01T14:54:47.004Z,4.30
2023-05-01T14:58:17.855Z,7.40
2023-05-01T15:01:55.350Z,5.20
2023-05-01T15:05:33.789Z,6.00
2023-05-01T15:09:10.934Z,3.90
2023-05-01T15:12:48.356Z,4.00
2023-05-01T15:16:25.857Z,3.70
2023-05-01T15:20:03.964Z,5.60
2023-05-01T15:23:45.396Z,7.90
2023-05-01T15:27:19.289Z,6.90
2023-05-01T15:30:56.524Z,6.10
2023-05-01T15:34:34.489Z,5.50
2023-05-01T15:38:12.990Z,4.50
2023-05-01T15:41:49.756Z,5.00
2023-05-01T15:45:28.063Z,4.10
2023-05-01T15:49:09.158Z,5.90
2023-05-01T15:52:42.676Z,4.80
2023-05-01T15:56:20.483Z,4.10
2023-05-01T15:59:59.980Z,2.90
2023-05-01T16:03:38.234Z,4.30
2023-05-01T16:07:14.530Z,4.20
2023-05-01T16:10:51.786Z,3.30
2023-05-01T16:14:29.168Z,4.80
2023-05-01T16:18:07.492Z,3.00
2023-05-01T16:21:44.446Z,3.10
2023-05-01T16:25:22.165Z,2.90
2023-05-01T16:29:01.885Z,2.70
2023-05-01T16:32:39.756Z,2.70
2023-05-01T16:36:17.354Z,3.70
2023-05-01T16:39:52.914Z,2.80
2023-05-01T16:43:30.533Z,2.70
2023-05-01T16:47:12.725Z,3.20
2023-05-01T16:50:45.795Z,2.00
2023-05-01T16:54:32.369Z,2.40
2023-05-01T16:58:00.814Z,2.40
2023-05-01T17:01:38.725Z,1.80
2023-05-01T17:05:19.066Z,3.00
2023-05-01T17:08:55.009Z,2.40
2023-05-01T17:12:32.160Z,2.10
2023-05-01T17:16:09.076Z,1.70
2023-05-01T17:19:46.715Z,2.10
2023-05-01T17:23:28.181Z,2.30
2023-05-01T17:27:03.349Z,3.20
2023-05-01T17:30:40.085Z,2.10
2023-05-01T17:34:17.376Z,2.20
2023-05-01T17:37:55.545Z,3.00
2023-05-01T17:41:32.678Z,2.20
2023-05-01T17:45:11.629Z,2.00
2023-05-01T17:48:48.922Z,3.10
2023-05-01T17:52:25.989Z,2.90
2023-05-01T17:56:03.975Z,2.40
2023-05-01T17:59:41.389Z,2.40
2023-05-01T18:03:19.029Z,2.40
2023-05-01T18:06:56.995Z,3.00
2023-05-01T18:10:34.295Z,2.50
2023-05-01T18:14:11.924Z,2.40
2023-05-01T18:17:49.605Z,3.80
2023-05-01T18:21:27.816Z,3.00
2023-05-01T18:25:06.545Z,3.30
2023-05-01T18:28:42.917Z,2.40
2023-05-01T18:32:20.070Z,3.30
2023-05-01T18:35:58.475Z,3.50
2023-05-01T18:39:35.711Z,3.60
2023-05-01T18:43:14.437Z,3.80
2023-05-01T18:47:09.826Z,3.20
2023-05-01T18:50:29.054Z,3.40
2023-05-01T18:54:08.020Z,3.10
2023-05-01T18:57:44.353Z,3.70
2023-05-01T19:01:23.728Z,3.10
2023-05-01T19:04:59.870Z,3.50
2023-05-01T19:08:37.634Z,3.40
2023-05-01T19:12:16.697Z,3.10
2023-05-01T19:15:53.738Z,3.10
2023-05-01T19:19:30.548Z,3.20
2023-05-01T19:23:08.399Z,3.30
2023-05-01T19:26:45.677Z,3.30
2023-05-01T19:30:23.220Z,3.20
2023-05-01T19:34:01.559Z,3.60
2023-05-01T19:37:40.172Z,3.30
2023-05-01T19:41:16.544Z,3.60
2023-05-01T19:44:54.129Z,3.40
2023-05-01T19:48:32.075Z,4.30
2023-05-01T19:52:10.395Z,4.00
2023-05-01T19:55:48.215Z,4.10
2023-05-01T19:59:24.824Z,3.90
2023-05-01T20:03:02.685Z,4.10
2023-05-01T20:06:40.368Z,3.70
2023-05-01T20:10:17.768Z,3.80
2023-05-01T20:13:55.407Z,4.60
2023-05-01T20:17:34.425Z,4.10
2023-05-01T20:21:11.320Z,4.80
2023-05-01T20:24:48.107Z,5.10
2023-05-01T20:28:25.966Z,5.60
2023-05-01T20:32:06.202Z,4.40
2023-05-01T20:35:41.770Z,5.70
2023-05-01T20:39:19.266Z,6.90
2023-05-01T20:42:59.558Z,6.20
2023-05-01T20:46:34.668Z,6.10
2023-05-01T20:50:12.258Z,7.20
2023-05-01T20:53:49.625Z,6.90
2023-05-01T20:57:28.033Z,6.60
2023-05-01T21:01:05.468Z,6.20
2023-05-01T21:04:43.443Z,7.30
2023-05-01T21:08:20.397Z,7.70
2023-05-01T21:11:57.969Z,7.00
2023-05-01T21:15:35.776Z,7.70
2023-05-01T21:19:15.455Z,7.30
2023-05-01T21:22:50.867Z,7.00
2023-05-01T21:26:29.769Z,7.80
2023-05-01T21:30:07.212Z,7.60
2023-05-01T21:33:45.865Z,8.20
2023-05-01T21:37:21.462Z,8.70
2023-05-01T21:40:59.700Z,7.40
2023-05-01T21:44:36.851Z,9.30
2023-05-01T21:48:16.569Z,8.00
2023-05-01T21:51:52.918Z,7.90
2023-05-01T21:55:31.478Z,7.10
2023-05-01T22:02:48.683Z,6.80
2023-05-01T22:06:26.180Z,7.60
2023-05-01T22:10:01.865Z,7.80
2023-05-01T22:13:38.417Z,7.50
2023-05-01T22:17:17.786Z,9.10
2023-05-01T22:20:54.182Z,7.30
2023-05-01T22:24:31.766Z,8.70
2023-05-01T22:28:09.611Z,8.20
2023-05-01T22:31:47.708Z,8.30
2023-05-01T22:35:24.575Z,9.60
2023-05-01T22:42:40.257Z,9.20
2023-05-01T22:46:17.819Z,8.30
2023-05-01T22:49:55.135Z,8.50
2023-05-01T22:53:33.649Z,8.50
2023-05-01T22:57:10.679Z,7.50
2023-05-01T23:00:48.355Z,8.10
2023-05-01T23:08:03.763Z,8.00
2023-05-01T23:11:41.780Z,8.10
2023-05-01T23:15:24.646Z,7.50
2023-05-01T23:18:56.858Z,7.90
2023-05-01T23:22:38.245Z,8.20
2023-05-01T23:26:26.087Z,8.50
2023-05-01T23:29:55.061Z,8.20
2023-05-01T23:33:39.948Z,8.10
2023-05-01T23:37:05.206Z,8.60
2023-05-01T23:40:43.782Z,8.30
2023-05-01T23:44:20.604Z,9.30
2023-05-01T23:47:58.960Z,8.50
2023-05-01T23:51:35.965Z,8.50
2023-05-01T23:55:13.702Z,9.40
